sensor_id;sensor_type;location;lat;lon;timestamp;pressure;altitude;pressure_sealevel;temperature;humidity
4972;BME280;2501;51.214;6.768;2023-03-24T00:01:24;99842.66;;;11.65;100.00
4972;BME280;2501;51.214;6.768;2023-03-24T00:03:55;99848.78;;;11.64;100.00
4972;BME280;2501;51.214;6.768;2023-03-24T00:06:31;99847.91;;;11.64;100.00
4972;BME280;2501;51.214;6.768;2023-03-24T00:09:02;99835.66;;;11.63;100.00
4972;BME280;2501;51.214;6.768;2023-03-24T00:11:31;99835.66;;;11.63;100.00
4972;BME280;2501;51.214;6.768;2023-03-24T00:14:01;99831.31;;;11.62;100.00
4972;BME280;2501;51.214;6.768;2023-03-24T00:16:29;99825.25;;;11.57;100.00
4972;BME280;2501;51.214;6.768;2023-03-24T00:18:59;99821.81;;;11.53;100.00
4972;BME280;2501;51.214;6.768;2023-03-24T00:21:31;99820.06;;;11.50;100.00
4972;BME280;2501;51.214;6.768;2023-03-24T00:24:03;99799.97;;;11.48;100.00
4972;BME280;2501;51.214;6.768;2023-03-24T00:26:32;99807.84;;;11.48;100.00
4972;BME280;2501;51.214;6.768;2023-03-24T00:29:02;99800.84;;;11.48;100.00
4972;BME280;2501;51.214;6.768;2023-03-24T00:31:32;99792.94;;;11.50;100.00
4972;BME280;2501;51.214;6.768;2023-03-24T00:34:04;99786.00;;;11.46;100.00
4972;BME280;2501;51.214;6.768;2023-03-24T00:36:36;99785.97;;;11.49;100.00
4972;BME280;2501;51.214;6.768;2023-03-24T00:39:04;99793.00;;;11.47;100.00
4972;BME280;2501;51.214;6.768;2023-03-24T00:41:33;99776.38;;;11.45;100.00
4972;BME280;2501;51.214;6.768;2023-03-24T00:44:01;99763.31;;;11.42;100.00
4972;BME280;2501;51.214;6.768;2023-03-24T00:46:31;99757.16;;;11.43;100.00
4972;BME280;2501;51.214;6.768;2023-03-24T00:49:01;99756.25;;;11.45;100.00
4972;BME280;2501;51.214;6.768;2023-03-24T00:51:32;99750.09;;;11.48;100.00
4972;BME280;2501;51.214;6.768;2023-03-24T00:54:04;99754.38;;;11.55;100.00
4972;BME280;2501;51.214;6.768;2023-03-24T00:56:35;99757.06;;;11.50;100.00
4972;BME280;2501;51.214;6.768;2023-03-24T00:59:05;99752.72;;;11.48;100.00
4972;BME280;2501;51.214;6.768;2023-03-24T01:01:34;99745.69;;;11.50;100.00
4972;BME280;2501;51.214;6.768;2023-03-24T01:04:05;99743.94;;;11.49;100.00
4972;BME280;2501;51.214;6.768;2023-03-24T01:06:35;99743.06;;;11.48;100.00
4972;BME280;2501;51.214;6.768;2023-03-24T01:09:07;99752.75;;;11.45;100.00
4972;BME280;2501;51.214;6.768;2023-03-24T01:11:38;99760.72;;;11.40;100.00
4972;BME280;2501;51.214;6.768;2023-03-24T01:14:07;99761.59;;;11.39;100.00
4972;BME280;2501;51.214;6.768;2023-03-24T01:16:36;99764.22;;;11.39;100.00
4972;BME280;2501;51.214;6.768;2023-03-24T01:19:04;99749.38;;;11.37;100.00
4972;BME280;2501;51.214;6.768;2023-03-24T01:21:33;99739.75;;;11.36;100.00
4972;BME280;2501;51.214;6.768;2023-03-24T01:24:03;99731.88;;;11.36;100.00
4972;BME280;2501;51.214;6.768;2023-03-24T01:26:34;99737.09;;;11.39;100.00
4972;BME280;2501;51.214;6.768;2023-03-24T01:29:03;99728.34;;;11.40;100.00
4972;BME280;2501;51.214;6.768;2023-03-24T01:31:32;99711.59;;;11.47;100.00
4972;BME280;2501;51.214;6.768;2023-03-24T01:34:01;99717.75;;;11.43;100.00
4972;BME280;2501;51.214;6.768;2023-03-24T01:36:29;99705.56;;;11.42;100.00
4972;BME280;2501;51.214;6.768;2023-03-24T01:38:58;99709.84;;;11.47;100.00
4972;BME280;2501;51.214;6.768;2023-03-24T01:41:31;99694.00;;;11.54;100.00
4972;BME280;2501;51.214;6.768;2023-03-24T01:44:31;99686.03;;;11.60;100.00
4972;BME280;2501;51.214;6.768;2023-03-24T01:47:01;99686.84;;;11.63;100.00
4972;BME280;2501;51.214;6.768;2023-03-24T01:49:34;99666.66;;;11.65;100.00
4972;BME280;2501;51.214;6.768;2023-03-24T01:52:08;99668.41;;;11.66;100.00
4972;BME280;2501;51.214;6.768;2023-03-24T01:54:41;99661.41;;;11.65;100.00
4972;BME280;2501;51.214;6.768;2023-03-24T01:57:13;99656.16;;;11.67;100.00
4972;BME280;2501;51.214;6.768;2023-03-24T01:59:48;99652.66;;;11.65;100.00
4972;BME280;2501;51.214;6.768;2023-03-24T02:02:17;99646.59;;;11.61;100.00
4972;BME280;2501;51.214;6.768;2023-03-24T02:04:48;99650.09;;;11.62;100.00
4972;BME280;2501;51.214;6.768;2023-03-24T02:07:35;99635.19;;;11.62;100.00
4972;BME280;2501;51.214;6.768;2023-03-24T02:10:08;99627.28;;;11.65;100.00
4972;BME280;2501;51.214;6.768;2023-03-24T02:12:38;99625.53;;;11.64;100.00
4972;BME280;2501;51.214;6.768;2023-03-24T02:15:11;99623.75;;;11.66;100.00
4972;BME280;2501;51.214;6.768;2023-03-24T02:17:56;99620.13;;;11.75;100.00
4972;BME280;2501;51.214;6.768;2023-03-24T02:20:36;99601.75;;;11.75;100.00
4972;BME280;2501;51.214;6.768;2023-03-24T02:23:39;99586.00;;;11.76;100.00
4972;BME280;2501;51.214;6.768;2023-03-24T02:26:37;99600.78;;;11.80;100.00
4972;BME280;2501;51.214;6.768;2023-03-24T02:32:22;99583.28;;;11.79;100.00
4972;BME280;2501;51.214;6.768;2023-03-24T02:35:22;99590.09;;;11.91;100.00
4972;BME280;2501;51.214;6.768;2023-03-24T02:41:06;99598.75;;;12.42;99.68
4972;BME280;2501;51.214;6.768;2023-03-24T02:43:46;99594.25;;;12.47;97.53
4972;BME280;2501;51.214;6.768;2023-03-24T02:46:22;99595.97;;;12.50;96.63
4972;BME280;2501;51.214;6.768;2023-03-24T02:49:04;99589.94;;;12.45;96.60
4972;BME280;2501;51.214;6.768;2023-03-24T02:51:38;99588.19;;;12.45;96.50
4972;BME280;2501;51.214;6.768;2023-03-24T02:54:12;99573.28;;;12.46;96.53
4972;BME280;2501;51.214;6.768;2023-03-24T02:56:46;99583.72;;;12.47;96.42
4972;BME280;2501;51.214;6.768;2023-03-24T02:59:20;99583.59;;;12.55;96.04
4972;BME280;2501;51.214;6.768;2023-03-24T03:01:52;99584.38;;;12.60;95.46
4972;BME280;2501;51.214;6.768;2023-03-24T03:04:27;99579.00;;;12.65;94.89
4972;BME280;2501;51.214;6.768;2023-03-24T03:07:02;99580.59;;;12.72;94.24
4972;BME280;2501;51.214;6.768;2023-03-24T03:09:35;99580.72;;;12.66;94.26
4972;BME280;2501;51.214;6.768;2023-03-24T03:12:08;99580.66;;;12.69;94.21
4972;BME280;2501;51.214;6.768;2023-03-24T03:14:41;99574.38;;;12.76;94.05
4972;BME280;2501;51.214;6.768;2023-03-24T03:17:16;99578.53;;;12.86;93.15
4972;BME280;2501;51.214;6.768;2023-03-24T03:19:50;99567.59;;;13.04;91.65
4972;BME280;2501;51.214;6.768;2023-03-24T03:22:25;99571.84;;;13.11;90.60
4972;BME280;2501;51.214;6.768;2023-03-24T03:24:56;99564.22;;;13.36;88.88
4972;BME280;2501;51.214;6.768;2023-03-24T03:27:33;99565.84;;;13.42;87.24
4972;BME280;2501;51.214;6.768;2023-03-24T03:30:07;99561.47;;;13.42;87.05
4972;BME280;2501;51.214;6.768;2023-03-24T03:32:42;99567.66;;;13.40;87.17
4972;BME280;2501;51.214;6.768;2023-03-24T03:35:21;99566.00;;;13.36;87.61
4972;BME280;2501;51.214;6.768;2023-03-24T03:37:56;99566.75;;;13.41;86.85
4972;BME280;2501;51.214;6.768;2023-03-24T03:40:31;99561.97;;;13.56;86.47
4972;BME280;2501;51.214;6.768;2023-03-24T03:43:04;99562.03;;;13.53;86.09
4972;BME280;2501;51.214;6.768;2023-03-24T03:45:33;99557.78;;;13.49;86.39
4972;BME280;2501;51.214;6.768;2023-03-24T03:48:03;99562.22;;;13.47;86.25
4972;BME280;2501;51.214;6.768;2023-03-24T03:50:32;99558.56;;;13.51;86.68
4972;BME280;2501;51.214;6.768;2023-03-24T03:53:01;99555.09;;;13.51;86.39
4972;BME280;2501;51.214;6.768;2023-03-24T03:55:30;99569.72;;;13.63;85.45
4972;BME280;2501;51.214;6.768;2023-03-24T03:57:59;99559.81;;;13.72;84.75
4972;BME280;2501;51.214;6.768;2023-03-24T04:00:32;99571.69;;;13.54;85.42
4972;BME280;2501;51.214;6.768;2023-03-24T04:03:15;99569.09;;;13.53;86.41
4972;BME280;2501;51.214;6.768;2023-03-24T04:05:52;99575.34;;;13.49;86.94
4972;BME280;2501;51.214;6.768;2023-03-24T04:08:35;99579.06;;;13.40;87.45
4972;BME280;2501;51.214;6.768;2023-03-24T04:11:24;99587.09;;;13.34;88.85
4972;BME280;2501;51.214;6.768;2023-03-24T04:14:17;99589.59;;;13.40;88.05
4972;BME280;2501;51.214;6.768;2023-03-24T04:17:03;99586.34;;;13.31;88.19
4972;BME280;2501;51.214;6.768;2023-03-24T04:19:42;99604.31;;;13.10;90.15
4972;BME280;2501;51.214;6.768;2023-03-24T04:22:24;99620.47;;;12.95;91.98
4972;BME280;2501;51.214;6.768;2023-03-24T04:24:58;99625.66;;;12.98;93.39
4972;BME280;2501;51.214;6.768;2023-03-24T04:27:35;99636.03;;;13.04;94.15
4972;BME280;2501;51.214;6.768;2023-03-24T04:30:11;99624.19;;;12.83;95.88
4972;BME280;2501;51.214;6.768;2023-03-24T04:32:48;99646.03;;;12.88;96.44
4972;BME280;2501;51.214;6.768;2023-03-24T04:35:23;99641.91;;;12.77;96.66
4972;BME280;2501;51.214;6.768;2023-03-24T04:37:57;99651.63;;;12.72;96.85
4972;BME280;2501;51.214;6.768;2023-03-24T04:40:30;99657.81;;;12.69;96.45
4972;BME280;2501;51.214;6.768;2023-03-24T04:43:03;99652.97;;;12.48;96.33
4972;BME280;2501;51.214;6.768;2023-03-24T04:45:33;99678.28;;;12.55;94.58
4972;BME280;2501;51.214;6.768;2023-03-24T04:48:06;99687.84;;;12.59;93.73
4972;BME280;2501;51.214;6.768;2023-03-24T04:50:38;99683.50;;;12.57;92.93
4972;BME280;2501;51.214;6.768;2023-03-24T04:53:08;99692.25;;;12.59;93.09
4972;BME280;2501;51.214;6.768;2023-03-24T04:55:52;99700.09;;;12.60;92.33
4972;BME280;2501;51.214;6.768;2023-03-24T04:58:22;99701.72;;;12.66;91.76
4972;BME280;2501;51.214;6.768;2023-03-24T05:00:51;99697.53;;;12.57;91.40
4972;BME280;2501;51.214;6.768;2023-03-24T05:03:23;99711.59;;;12.54;92.00
4972;BME280;2501;51.214;6.768;2023-03-24T05:05:52;99706.31;;;12.56;92.37
4972;BME280;2501;51.214;6.768;2023-03-24T05:08:21;99717.63;;;12.61;91.84
4972;BME280;2501;51.214;6.768;2023-03-24T05:10:49;99733.72;;;12.44;92.13
4972;BME280;2501;51.214;6.768;2023-03-24T05:13:17;99745.22;;;12.37;92.69
4972;BME280;2501;51.214;6.768;2023-03-24T05:15:46;99755.84;;;12.30;92.41
4972;BME280;2501;51.214;6.768;2023-03-24T05:18:14;99761.31;;;12.19;91.78
4972;BME280;2501;51.214;6.768;2023-03-24T05:20:45;99768.41;;;12.12;90.97
4972;BME280;2501;51.214;6.768;2023-03-24T05:23:13;99766.72;;;12.10;90.81
4972;BME280;2501;51.214;6.768;2023-03-24T05:25:42;99787.81;;;12.05;90.60
4972;BME280;2501;51.214;6.768;2023-03-24T05:28:10;99775.66;;;11.98;91.03
4972;BME280;2501;51.214;6.768;2023-03-24T05:30:39;99782.88;;;11.84;90.96
4972;BME280;2501;51.214;6.768;2023-03-24T05:33:07;99792.66;;;11.76;91.31
4972;BME280;2501;51.214;6.768;2023-03-24T05:35:35;99800.59;;;11.68;91.30
4972;BME280;2501;51.214;6.768;2023-03-24T05:38:06;99811.31;;;11.51;88.99
4972;BME280;2501;51.214;6.768;2023-03-24T05:40:35;99817.59;;;11.41;87.20
4972;BME280;2501;51.214;6.768;2023-03-24T05:43:03;99827.28;;;11.33;86.40
4972;BME280;2501;51.214;6.768;2023-03-24T05:45:32;99823.81;;;11.33;87.08
4972;BME280;2501;51.214;6.768;2023-03-24T05:48:01;99834.34;;;11.28;86.88
4972;BME280;2501;51.214;6.768;2023-03-24T05:50:29;99844.78;;;11.34;86.65
4972;BME280;2501;51.214;6.768;2023-03-24T05:52:58;99850.94;;;11.32;86.47
4972;BME280;2501;51.214;6.768;2023-03-24T05:55:29;99843.22;;;11.20;86.17
4972;BME280;2501;51.214;6.768;2023-03-24T05:57:57;99862.53;;;11.12;86.74
4972;BME280;2501;51.214;6.768;2023-03-24T06:00:27;99852.13;;;11.03;86.81
4972;BME280;2501;51.214;6.768;2023-03-24T06:02:56;99860.03;;;11.00;86.82
4972;BME280;2501;51.214;6.768;2023-03-24T06:05:25;99877.50;;;11.01;86.71
4972;BME280;2501;51.214;6.768;2023-03-24T06:07:55;99885.41;;;11.00;85.09
4972;BME280;2501;51.214;6.768;2023-03-24T06:10:29;99885.28;;;11.12;85.00
4972;BME280;2501;51.214;6.768;2023-03-24T06:12:57;99884.50;;;11.04;84.32
4972;BME280;2501;51.214;6.768;2023-03-24T06:15:25;99891.56;;;10.96;83.55
4972;BME280;2501;51.214;6.768;2023-03-24T06:17:55;99899.56;;;10.82;83.25
4972;BME280;2501;51.214;6.768;2023-03-24T06:20:25;99910.03;;;10.82;82.08
4972;BME280;2501;51.214;6.768;2023-03-24T06:22:54;99912.78;;;10.70;81.59
4972;BME280;2501;51.214;6.768;2023-03-24T06:25:24;99908.41;;;10.69;81.21
4972;BME280;2501;51.214;6.768;2023-03-24T06:27:56;99913.63;;;10.73;80.67
4972;BME280;2501;51.214;6.768;2023-03-24T06:30:28;99913.69;;;10.63;80.29
4972;BME280;2501;51.214;6.768;2023-03-24T06:32:56;99916.28;;;10.67;80.23
4972;BME280;2501;51.214;6.768;2023-03-24T06:35:25;99922.28;;;10.85;80.27
4972;BME280;2501;51.214;6.768;2023-03-24T06:37:54;99929.28;;;10.79;80.14
4972;BME280;2501;51.214;6.768;2023-03-24T06:40:22;99927.56;;;10.75;79.72
4972;BME280;2501;51.214;6.768;2023-03-24T06:42:51;99932.81;;;10.77;80.23
4972;BME280;2501;51.214;6.768;2023-03-24T06:45:22;99921.44;;;10.76;80.29
4972;BME280;2501;51.214;6.768;2023-03-24T06:47:51;99928.59;;;10.58;80.96
4972;BME280;2501;51.214;6.768;2023-03-24T06:50:21;99931.28;;;10.50;81.39
4972;BME280;2501;51.214;6.768;2023-03-24T06:52:51;99924.31;;;10.44;81.25
4972;BME280;2501;51.214;6.768;2023-03-24T06:55:19;99930.50;;;10.36;81.89
4972;BME280;2501;51.214;6.768;2023-03-24T06:57:48;99929.63;;;10.38;81.88
4972;BME280;2501;51.214;6.768;2023-03-24T07:00:18;99928.69;;;10.44;82.22
4972;BME280;2501;51.214;6.768;2023-03-24T07:02:49;99933.06;;;10.43;82.17
4972;BME280;2501;51.214;6.768;2023-03-24T07:05:17;99947.97;;;10.37;81.86
4972;BME280;2501;51.214;6.768;2023-03-24T07:07:46;99951.47;;;10.36;83.30
4972;BME280;2501;51.214;6.768;2023-03-24T07:10:15;99950.69;;;10.14;84.54
4972;BME280;2501;51.214;6.768;2023-03-24T07:12:44;99939.41;;;10.00;86.01
4972;BME280;2501;51.214;6.768;2023-03-24T07:15:13;99954.19;;;10.10;86.89
4972;BME280;2501;51.214;6.768;2023-03-24T07:17:41;99949.81;;;10.15;87.49
4972;BME280;2501;51.214;6.768;2023-03-24T07:20:12;99955.06;;;10.20;88.05
4972;BME280;2501;51.214;6.768;2023-03-24T07:22:41;99948.84;;;10.39;87.59
4972;BME280;2501;51.214;6.768;2023-03-24T07:25:09;99941.03;;;10.22;88.15
4972;BME280;2501;51.214;6.768;2023-03-24T07:27:39;99955.88;;;10.31;88.30
4972;BME280;2501;51.214;6.768;2023-03-24T07:30:08;99959.25;;;10.50;87.88
4972;BME280;2501;51.214;6.768;2023-03-24T07:32:36;99957.53;;;10.39;86.81
4972;BME280;2501;51.214;6.768;2023-03-24T07:35:07;99948.75;;;10.53;86.73
4972;BME280;2501;51.214;6.768;2023-03-24T07:37:38;99954.81;;;10.58;86.24
4972;BME280;2501;51.214;6.768;2023-03-24T07:40:09;99945.13;;;10.70;85.51
4972;BME280;2501;51.214;6.768;2023-03-24T07:42:38;99955.53;;;10.79;85.03
4972;BME280;2501;51.214;6.768;2023-03-24T07:45:07;99945.00;;;11.77;81.75
4972;BME280;2501;51.214;6.768;2023-03-24T07:47:36;99957.81;;;11.21;80.52
4972;BME280;2501;51.214;6.768;2023-03-24T07:50:09;99958.91;;;10.92;81.73
4972;BME280;2501;51.214;6.768;2023-03-24T07:52:41;99961.34;;;11.16;81.08
4972;BME280;2501;51.214;6.768;2023-03-24T07:55:10;99974.66;;;10.92;80.28
4972;BME280;2501;51.214;6.768;2023-03-24T07:57:40;99976.38;;;10.98;80.14
4972;BME280;2501;51.214;6.768;2023-03-24T08:00:10;99975.31;;;11.22;79.53
4972;BME280;2501;51.214;6.768;2023-03-24T08:05:18;99999.97;;;11.01;80.09
4972;BME280;2501;51.214;6.768;2023-03-24T08:07:50;99998.19;;;11.06;80.06
4972;BME280;2501;51.214;6.768;2023-03-24T08:10:24;100004.91;;;11.37;79.50
4972;BME280;2501;51.214;6.768;2023-03-24T08:12:52;100008.44;;;11.35;80.08
4972;BME280;2501;51.214;6.768;2023-03-24T08:15:21;100002.75;;;11.79;77.95
4972;BME280;2501;51.214;6.768;2023-03-24T08:17:51;100000.25;;;12.42;75.75
4972;BME280;2501;51.214;6.768;2023-03-24T08:20:20;100000.06;;;12.54;73.97
4972;BME280;2501;51.214;6.768;2023-03-24T08:22:54;99997.22;;;12.03;75.17
4972;BME280;2501;51.214;6.768;2023-03-24T08:25:24;99996.28;;;12.10;76.08
4972;BME280;2501;51.214;6.768;2023-03-24T08:27:53;99993.09;;;11.82;76.49
4972;BME280;2501;51.214;6.768;2023-03-24T08:30:23;99994.41;;;12.17;76.19
4972;BME280;2501;51.214;6.768;2023-03-24T08:32:53;99996.56;;;12.53;73.71
4972;BME280;2501;51.214;6.768;2023-03-24T08:35:24;99990.00;;;12.20;71.94
4972;BME280;2501;51.214;6.768;2023-03-24T08:37:56;99982.34;;;12.01;73.27
4972;BME280;2501;51.214;6.768;2023-03-24T08:40:27;99991.94;;;12.05;74.52
4972;BME280;2501;51.214;6.768;2023-03-24T08:42:57;99995.59;;;11.93;74.72
4972;BME280;2501;51.214;6.768;2023-03-24T08:45:29;99998.31;;;11.84;75.94
4972;BME280;2501;51.214;6.768;2023-03-24T08:48:00;99996.50;;;11.92;75.67
4972;BME280;2501;51.214;6.768;2023-03-24T08:50:33;100006.03;;;11.98;73.92
4972;BME280;2501;51.214;6.768;2023-03-24T08:53:04;100009.63;;;11.94;73.67
4972;BME280;2501;51.214;6.768;2023-03-24T08:55:33;99998.28;;;11.89;74.57
4972;BME280;2501;51.214;6.768;2023-03-24T08:58:02;100006.69;;;12.16;73.74
4972;BME280;2501;51.214;6.768;2023-03-24T09:00:30;100008.47;;;12.14;72.87
4972;BME280;2501;51.214;6.768;2023-03-24T09:02:59;100012.19;;;11.95;73.20
4972;BME280;2501;51.214;6.768;2023-03-24T09:05:28;100008.44;;;12.16;73.63
4972;BME280;2501;51.214;6.768;2023-03-24T09:07:56;100013.59;;;12.25;72.69
4972;BME280;2501;51.214;6.768;2023-03-24T09:10:28;100013.56;;;12.28;72.47
4972;BME280;2501;51.214;6.768;2023-03-24T09:12:57;100012.50;;;12.41;71.88
4972;BME280;2501;51.214;6.768;2023-03-24T09:15:25;100016.06;;;12.39;70.98
4972;BME280;2501;51.214;6.768;2023-03-24T09:17:54;100017.69;;;12.47;70.65
4972;BME280;2501;51.214;6.768;2023-03-24T09:20:25;100022.59;;;12.07;71.07
4972;BME280;2501;51.214;6.768;2023-03-24T09:22:54;100017.69;;;12.47;70.13
4972;BME280;2501;51.214;6.768;2023-03-24T09:25:23;100027.16;;;12.61;68.94
4972;BME280;2501;51.214;6.768;2023-03-24T09:27:54;100030.78;;;12.52;68.81
4972;BME280;2501;51.214;6.768;2023-03-24T09:30:23;100025.97;;;12.15;69.93
4972;BME280;2501;51.214;6.768;2023-03-24T09:32:52;100029.75;;;12.64;69.76
4972;BME280;2501;51.214;6.768;2023-03-24T09:35:23;100017.63;;;12.50;69.78
4972;BME280;2501;51.214;6.768;2023-03-24T09:37:51;100024.63;;;12.53;69.43
4972;BME280;2501;51.214;6.768;2023-03-24T09:40:23;100035.56;;;12.84;68.95
4972;BME280;2501;51.214;6.768;2023-03-24T09:42:59;100025.63;;;13.04;67.51
4972;BME280;2501;51.214;6.768;2023-03-24T09:45:31;100032.59;;;13.08;67.79
4972;BME280;2501;51.214;6.768;2023-03-24T09:48:03;100029.94;;;13.08;66.71
4972;BME280;2501;51.214;6.768;2023-03-24T09:50:34;100039.06;;;12.84;67.59
4972;BME280;2501;51.214;6.768;2023-03-24T09:53:08;100040.16;;;13.31;67.04
4972;BME280;2501;51.214;6.768;2023-03-24T09:55:43;100037.97;;;12.99;65.69
4972;BME280;2501;51.214;6.768;2023-03-24T09:58:14;100046.44;;;12.63;67.67
4972;BME280;2501;51.214;6.768;2023-03-24T10:00:44;100057.28;;;13.00;67.89
4972;BME280;2501;51.214;6.768;2023-03-24T10:03:16;100052.00;;;13.56;65.35
4972;BME280;2501;51.214;6.768;2023-03-24T10:05:51;100060.38;;;13.80;64.33
4972;BME280;2501;51.214;6.768;2023-03-24T10:08:26;100062.56;;;13.55;63.84
4972;BME280;2501;51.214;6.768;2023-03-24T10:10:59;100067.50;;;13.73;62.99
4972;BME280;2501;51.214;6.768;2023-03-24T10:13:42;100068.63;;;14.08;61.13
4972;BME280;2501;51.214;6.768;2023-03-24T10:16:19;100079.97;;;13.65;61.34
4972;BME280;2501;51.214;6.768;2023-03-24T10:18:56;100077.53;;;13.53;61.78
4972;BME280;2501;51.214;6.768;2023-03-24T10:21:27;100076.63;;;13.54;62.13
4972;BME280;2501;51.214;6.768;2023-03-24T10:24:04;100074.44;;;13.28;63.20
4972;BME280;2501;51.214;6.768;2023-03-24T10:26:39;100077.59;;;13.50;62.05
4972;BME280;2501;51.214;6.768;2023-03-24T10:29:27;100075.66;;;13.03;63.05
4972;BME280;2501;51.214;6.768;2023-03-24T10:31:59;100087.78;;;13.14;63.73
4972;BME280;2501;51.214;6.768;2023-03-24T10:34:32;100067.00;;;12.96;63.77
4972;BME280;2501;51.214;6.768;2023-03-24T10:37:02;100087.19;;;12.96;64.09
4972;BME280;2501;51.214;6.768;2023-03-24T10:39:31;100087.06;;;13.02;63.33
4972;BME280;2501;51.214;6.768;2023-03-24T10:42:00;100094.91;;;13.08;63.92
4972;BME280;2501;51.214;6.768;2023-03-24T10:44:31;100081.19;;;12.83;65.45
4972;BME280;2501;51.214;6.768;2023-03-24T10:47:02;100089.56;;;13.12;65.50
4972;BME280;2501;51.214;6.768;2023-03-24T10:49:33;100084.31;;;13.11;65.62
4972;BME280;2501;51.214;6.768;2023-03-24T10:52:08;100079.81;;;13.19;64.21
4972;BME280;2501;51.214;6.768;2023-03-24T10:54:40;100092.25;;;13.08;63.53
4972;BME280;2501;51.214;6.768;2023-03-24T10:57:21;100086.59;;;13.35;62.72
4972;BME280;2501;51.214;6.768;2023-03-24T10:59:55;100077.78;;;12.79;63.79
4972;BME280;2501;51.214;6.768;2023-03-24T11:02:25;100077.38;;;13.05;63.39
4972;BME280;2501;51.214;6.768;2023-03-24T11:04:56;100078.56;;;13.44;62.04
4972;BME280;2501;51.214;6.768;2023-03-24T11:07:30;100067.78;;;13.58;59.86
4972;BME280;2501;51.214;6.768;2023-03-24T11:10:04;100071.84;;;13.77;59.21
4972;BME280;2501;51.214;6.768;2023-03-24T11:12:34;100072.59;;;13.33;60.45
4972;BME280;2501;51.214;6.768;2023-03-24T11:15:17;100084.91;;;13.85;59.43
4972;BME280;2501;51.214;6.768;2023-03-24T11:17:48;100066.19;;;13.99;58.53
4972;BME280;2501;51.214;6.768;2023-03-24T11:20:25;100075.66;;;14.07;57.75
4972;BME280;2501;51.214;6.768;2023-03-24T11:22:58;100079.06;;;14.14;57.65
4972;BME280;2501;51.214;6.768;2023-03-24T11:25:29;100071.13;;;14.15;56.94
4972;BME280;2501;51.214;6.768;2023-03-24T11:28:00;100078.53;;;14.41;57.07
4972;BME280;2501;51.214;6.768;2023-03-24T11:30:34;100085.59;;;14.41;57.07
4972;BME280;2501;51.214;6.768;2023-03-24T11:33:03;100089.13;;;13.93;58.38
4972;BME280;2501;51.214;6.768;2023-03-24T11:35:31;100079.06;;;14.58;56.44
4972;BME280;2501;51.214;6.768;2023-03-24T11:38:03;100084.63;;;14.45;56.50
4972;BME280;2501;51.214;6.768;2023-03-24T11:40:33;100078.94;;;14.65;56.01
4972;BME280;2501;51.214;6.768;2023-03-24T11:43:02;100077.31;;;14.13;56.50
4972;BME280;2501;51.214;6.768;2023-03-24T11:45:38;100093.41;;;13.99;56.83
4972;BME280;2501;51.214;6.768;2023-03-24T11:48:13;100087.44;;;14.36;56.50
4972;BME280;2501;51.214;6.768;2023-03-24T11:50:45;100078.53;;;14.41;55.13
4972;BME280;2501;51.214;6.768;2023-03-24T11:53:16;100067.59;;;14.59;55.21
4972;BME280;2501;51.214;6.768;2023-03-24T11:55:50;100087.22;;;14.02;55.96
4972;BME280;2501;51.214;6.768;2023-03-24T11:58:26;100077.28;;;14.59;55.02
4972;BME280;2501;51.214;6.768;2023-03-24T12:01:04;100068.13;;;14.34;53.91
4972;BME280;2501;51.214;6.768;2023-03-24T12:06:37;100059.44;;;14.72;53.21
4972;BME280;2501;51.214;6.768;2023-03-24T12:09:19;100059.88;;;14.52;54.09
4972;BME280;2501;51.214;6.768;2023-03-24T12:11:59;100064.91;;;15.03;53.23
4972;BME280;2501;51.214;6.768;2023-03-24T12:14:41;100061.56;;;14.54;53.97
4972;BME280;2501;51.214;6.768;2023-03-24T12:17:21;100062.66;;;14.84;53.85
4972;BME280;2501;51.214;6.768;2023-03-24T12:20:06;100056.91;;;15.06;53.00
4972;BME280;2501;51.214;6.768;2023-03-24T12:22:48;100056.03;;;14.67;53.54
4972;BME280;2501;51.214;6.768;2023-03-24T12:28:38;100044.97;;;14.49;55.39
4972;BME280;2501;51.214;6.768;2023-03-24T12:34:40;100044.97;;;14.49;55.80
4972;BME280;2501;51.214;6.768;2023-03-24T12:37:21;100043.03;;;14.13;55.95
4972;BME280;2501;51.214;6.768;2023-03-24T12:40:00;100038.50;;;15.01;54.82
4972;BME280;2501;51.214;6.768;2023-03-24T12:42:38;100028.47;;;14.78;55.09
4972;BME280;2501;51.214;6.768;2023-03-24T12:45:26;100029.31;;;15.17;54.27
4972;BME280;2501;51.214;6.768;2023-03-24T12:48:18;100028.44;;;15.52;51.45
4972;BME280;2501;51.214;6.768;2023-03-24T12:51:03;100030.72;;;15.32;51.06
4972;BME280;2501;51.214;6.768;2023-03-24T12:53:42;100028.50;;;15.15;51.84
4972;BME280;2501;51.214;6.768;2023-03-24T12:56:16;100035.44;;;15.19;52.00
4972;BME280;2501;51.214;6.768;2023-03-24T12:58:48;100030.59;;;15.72;51.28
4972;BME280;2501;51.214;6.768;2023-03-24T13:01:22;100024.16;;;15.82;50.31
4972;BME280;2501;51.214;6.768;2023-03-24T13:03:58;100031.78;;;15.60;50.35
4972;BME280;2501;51.214;6.768;2023-03-24T13:06:35;100030.59;;;15.01;53.05
4972;BME280;2501;51.214;6.768;2023-03-24T13:09:14;100037.06;;;14.49;54.22
4972;BME280;2501;51.214;6.768;2023-03-24T13:11:54;100030.13;;;14.84;54.19
4972;BME280;2501;51.214;6.768;2023-03-24T13:14:28;100034.44;;;14.88;53.97
4972;BME280;2501;51.214;6.768;2023-03-24T13:17:04;100036.06;;;15.29;53.24
4972;BME280;2501;51.214;6.768;2023-03-24T13:19:36;100023.38;;;15.43;52.89
4972;BME280;2501;51.214;6.768;2023-03-24T13:22:13;100029.50;;;15.10;52.74
4972;BME280;2501;51.214;6.768;2023-03-24T13:24:44;100026.28;;;15.32;52.16
4972;BME280;2501;51.214;6.768;2023-03-24T13:27:19;100031.22;;;15.46;51.74
4972;BME280;2501;51.214;6.768;2023-03-24T13:30:23;100021.41;;;15.85;50.96
4972;BME280;2501;51.214;6.768;2023-03-24T13:32:59;100025.25;;;15.75;50.87
4972;BME280;2501;51.214;6.768;2023-03-24T13:35:46;100016.56;;;16.01;49.84
4972;BME280;2501;51.214;6.768;2023-03-24T13:38:25;100014.19;;;16.82;48.05
4972;BME280;2501;51.214;6.768;2023-03-24T13:40:58;100007.69;;;16.04;48.32
4972;BME280;2501;51.214;6.768;2023-03-24T13:43:31;100003.50;;;15.95;48.49
4972;BME280;2501;51.214;6.768;2023-03-24T13:46:02;99991.91;;;17.15;46.44
4972;BME280;2501;51.214;6.768;2023-03-24T13:48:35;99988.06;;;17.25;46.08
4972;BME280;2501;51.214;6.768;2023-03-24T13:51:14;99975.41;;;16.22;46.49
4972;BME280;2501;51.214;6.768;2023-03-24T13:53:51;99994.59;;;14.97;48.57
4972;BME280;2501;51.214;6.768;2023-03-24T13:56:27;99990.72;;;15.12;48.41
4972;BME280;2501;51.214;6.768;2023-03-24T14:02:09;100062.66;;;14.00;56.97
4972;BME280;2501;51.214;6.768;2023-03-24T14:04:45;100078.31;;;13.01;70.17
4972;BME280;2501;51.214;6.768;2023-03-24T14:07:40;100053.66;;;13.07;72.86